sensor_id;sensor_type;location;lat;lon;timestamp;P1;durP1;ratioP1;P2;durP2;ratioP2
17866;SDS011;9059;49.934;8.650;2023-05-10T00:00:20;0.35;;;0.17;;
17866;SDS011;9059;49.934;8.650;2023-05-10T00:01:25;0.40;;;0.20;;
17866;SDS011;9059;49.934;8.650;2023-05-10T00:02:26;1.83;;;0.30;;
17866;SDS011;9059;49.934;8.650;2023-05-10T00:03:30;0.22;;;0.15;;
17866;SDS011;9059;49.934;8.650;2023-05-10T00:04:32;3.25;;;0.20;;
17866;SDS011;9059;49.934;8.650;2023-05-10T00:05:35;0.38;;;0.30;;
17866;SDS011;9059;49.934;8.650;2023-05-10T00:06:37;0.50;;;0.28;;
17866;SDS011;9059;49.934;8.650;2023-05-10T00:07:39;0.20;;;0.20;;
17866;SDS011;9059;49.934;8.650;2023-05-10T00:08:41;1.65;;;0.13;;
17866;SDS011;9059;49.934;8.650;2023-05-10T00:09:44;0.98;;;0.20;;
17866;SDS011;9059;49.934;8.650;2023-05-10T00:10:45;0.20;;;0.20;;
17866;SDS011;9059;49.934;8.650;2023-05-10T00:11:48;0.17;;;0.17;;
17866;SDS011;9059;49.934;8.650;2023-05-10T00:12:50;0.35;;;0.15;;
17866;SDS011;9059;49.934;8.650;2023-05-10T00:13:53;0.28;;;0.20;;
17866;SDS011;9059;49.934;8.650;2023-05-10T00:14:56;0.28;;;0.20;;
17866;SDS011;9059;49.934;8.650;2023-05-10T00:15:58;0.30;;;0.20;;
17866;SDS011;9059;49.934;8.650;2023-05-10T00:17:00;0.10;;;0.10;;
17866;SDS011;9059;49.934;8.650;2023-05-10T00:18:03;1.75;;;0.30;;
17866;SDS011;9059;49.934;8.650;2023-05-10T00:19:05;0.20;;;0.20;;
17866;SDS011;9059;49.934;8.650;2023-05-10T00:20:08;2.58;;;0.40;;
17866;SDS011;9059;49.934;8.650;2023-05-10T00:21:11;1.70;;;0.40;;
17866;SDS011;9059;49.934;8.650;2023-05-10T00:22:14;0.20;;;0.20;;
17866;SDS011;9059;49.934;8.650;2023-05-10T00:23:15;2.47;;;0.30;;
17866;SDS011;9059;49.934;8.650;2023-05-10T00:24:18;0.40;;;0.10;;
17866;SDS011;9059;49.934;8.650;2023-05-10T00:25:20;1.48;;;0.38;;
17866;SDS011;9059;49.934;8.650;2023-05-10T00:26:23;0.80;;;0.20;;
17866;SDS011;9059;49.934;8.650;2023-05-10T00:27:25;0.10;;;0.10;;
17866;SDS011;9059;49.934;8.650;2023-05-10T00:28:27;0.30;;;0.10;;
17866;SDS011;9059;49.934;8.650;2023-05-10T00:29:29;0.22;;;0.20;;
17866;SDS011;9059;49.934;8.650;2023-05-10T00:30:34;1.23;;;0.20;;
17866;SDS011;9059;49.934;8.650;2023-05-10T00:31:36;0.20;;;0.20;;
17866;SDS011;9059;49.934;8.650;2023-05-10T00:32:38;0.25;;;0.20;;
17866;SDS011;9059;49.934;8.650;2023-05-10T00:33:40;0.15;;;0.15;;
17866;SDS011;9059;49.934;8.650;2023-05-10T00:34:43;0.20;;;0.20;;
17866;SDS011;9059;49.934;8.650;2023-05-10T00:35:45;1.02;;;0.28;;
17866;SDS011;9059;49.934;8.650;2023-05-10T00:36:47;0.20;;;0.20;;
17866;SDS011;9059;49.934;8.650;2023-05-10T00:37:49;0.25;;;0.20;;
17866;SDS011;9059;49.934;8.650;2023-05-10T00:38:52;0.32;;;0.20;;
17866;SDS011;9059;49.934;8.650;2023-05-10T00:39:53;0.25;;;0.20;;
17866;SDS011;9059;49.934;8.650;2023-05-10T00:40:56;0.20;;;0.20;;
17866;SDS011;9059;49.934;8.650;2023-05-10T00:41:58;0.20;;;0.15;;
17866;SDS011;9059;49.934;8.650;2023-05-10T00:43:02;0.82;;;0.20;;
17866;SDS011;9059;49.934;8.650;2023-05-10T00:44:04;0.90;;;0.15;;
17866;SDS011;9059;49.934;8.650;2023-05-10T00:45:07;5.40;;;0.20;;
17866;SDS011;9059;49.934;8.650;2023-05-10T00:46:10;1.65;;;0.25;;
17866;SDS011;9059;49.934;8.650;2023-05-10T00:47:13;0.10;;;0.10;;
17866;SDS011;9059;49.934;8.650;2023-05-10T00:48:15;0.85;;;0.20;;
17866;SDS011;9059;49.934;8.650;2023-05-10T00:49:18;0.20;;;0.20;;
17866;SDS011;9059;49.934;8.650;2023-05-10T00:50:20;0.22;;;0.10;;
17866;SDS011;9059;49.934;8.650;2023-05-10T00:51:23;0.30;;;0.20;;
17866;SDS011;9059;49.934;8.650;2023-05-10T00:52:25;0.10;;;0.10;;
17866;SDS011;9059;49.934;8.650;2023-05-10T00:53:28;1.23;;;0.20;;
17866;SDS011;9059;49.934;8.650;2023-05-10T00:54:30;0.30;;;0.17;;
17866;SDS011;9059;49.934;8.650;2023-05-10T00:55:32;0.20;;;0.20;;
17866;SDS011;9059;49.934;8.650;2023-05-10T00:56:34;0.65;;;0.20;;
17866;SDS011;9059;49.934;8.650;2023-05-10T00:57:37;3.08;;;0.30;;
17866;SDS011;9059;49.934;8.650;2023-05-10T00:58:39;0.10;;;0.10;;
17866;SDS011;9059;49.934;8.650;2023-05-10T00:59:42;0.13;;;0.13;;
17866;SDS011;9059;49.934;8.650;2023-05-10T01:00:44;1.83;;;0.30;;
17866;SDS011;9059;49.934;8.650;2023-05-10T01:01:50;0.22;;;0.20;;
17866;SDS011;9059;49.934;8.650;2023-05-10T01:02:53;0.20;;;0.20;;
17866;SDS011;9059;49.934;8.650;2023-05-10T01:03:56;0.17;;;0.17;;
17866;SDS011;9059;49.934;8.650;2023-05-10T01:04:58;0.20;;;0.20;;
17866;SDS011;9059;49.934;8.650;2023-05-10T01:06:01;0.20;;;0.20;;
17866;SDS011;9059;49.934;8.650;2023-05-10T01:07:04;0.20;;;0.20;;
17866;SDS011;9059;49.934;8.650;2023-05-10T01:08:07;0.82;;;0.20;;
17866;SDS011;9059;49.934;8.650;2023-05-10T01:09:10;0.20;;;0.13;;
17866;SDS011;9059;49.934;8.650;2023-05-10T01:10:13;0.20;;;0.20;;
17866;SDS011;9059;49.934;8.650;2023-05-10T01:11:15;1.48;;;0.30;;
17866;SDS011;9059;49.934;8.650;2023-05-10T01:12:18;2.40;;;0.30;;
17866;SDS011;9059;49.934;8.650;2023-05-10T01:13:23;0.22;;;0.20;;
17866;SDS011;9059;49.934;8.650;2023-05-10T01:14:32;0.70;;;0.20;;
17866;SDS011;9059;49.934;8.650;2023-05-10T01:15:34;0.30;;;0.22;;
17866;SDS011;9059;49.934;8.650;2023-05-10T01:16:38;3.75;;;0.30;;
17866;SDS011;9059;49.934;8.650;2023-05-10T01:17:43;0.28;;;0.20;;
17866;SDS011;9059;49.934;8.650;2023-05-10T01:18:47;0.43;;;0.20;;
17866;SDS011;9059;49.934;8.650;2023-05-10T01:19:49;0.47;;;0.20;;
17866;SDS011;9059;49.934;8.650;2023-05-10T01:20:54;3.30;;;0.50;;
17866;SDS011;9059;49.934;8.650;2023-05-10T01:22:02;0.20;;;0.20;;
17866;SDS011;9059;49.934;8.650;2023-05-10T01:23:16;1.25;;;0.32;;
17866;SDS011;9059;49.934;8.650;2023-05-10T01:24:34;0.85;;;0.25;;
17866;SDS011;9059;49.934;8.650;2023-05-10T01:25:58;3.67;;;0.30;;
17866;SDS011;9059;49.934;8.650;2023-05-10T01:27:13;0.50;;;0.30;;
17866;SDS011;9059;49.934;8.650;2023-05-10T01:28:33;1.25;;;0.20;;
17866;SDS011;9059;49.934;8.650;2023-05-10T01:31:28;0.20;;;0.20;;
17866;SDS011;9059;49.934;8.650;2023-05-10T01:32:37;0.30;;;0.30;;
17866;SDS011;9059;49.934;8.650;2023-05-10T01:33:46;0.10;;;0.10;;
17866;SDS011;9059;49.934;8.650;2023-05-10T01:34:54;2.05;;;0.20;;
17866;SDS011;9059;49.934;8.650;2023-05-10T01:36:00;0.30;;;0.30;;
17866;SDS011;9059;49.934;8.650;2023-05-10T01:37:09;0.50;;;0.20;;
17866;SDS011;9059;49.934;8.650;2023-05-10T01:39:33;0.20;;;0.20;;
17866;SDS011;9059;49.934;8.650;2023-05-10T01:40:42;1.00;;;0.20;;
17866;SDS011;9059;49.934;8.650;2023-05-10T01:41:51;0.80;;;0.28;;
17866;SDS011;9059;49.934;8.650;2023-05-10T01:42:58;1.40;;;0.40;;
17866;SDS011;9059;49.934;8.650;2023-05-10T01:44:05;1.85;;;0.20;;
17866;SDS011;9059;49.934;8.650;2023-05-10T01:45:14;2.78;;;0.28;;
17866;SDS011;9059;49.934;8.650;2023-05-10T01:46:23;0.28;;;0.20;;
17866;SDS011;9059;49.934;8.650;2023-05-10T01:47:29;0.10;;;0.10;;
17866;SDS011;9059;49.934;8.650;2023-05-10T01:48:38;0.20;;;0.20;;
17866;SDS011;9059;49.934;8.650;2023-05-10T01:49:49;0.30;;;0.20;;
17866;SDS011;9059;49.934;8.650;2023-05-10T01:50:52;0.25;;;0.20;;
17866;SDS011;9059;49.934;8.650;2023-05-10T01:51:59;0.30;;;0.20;;
17866;SDS011;9059;49.934;8.650;2023-05-10T01:53:09;0.30;;;0.20;;
17866;SDS011;9059;49.934;8.650;2023-05-10T01:54:12;0.40;;;0.38;;
17866;SDS011;9059;49.934;8.650;2023-05-10T01:55:16;0.30;;;0.30;;
17866;SDS011;9059;49.934;8.650;2023-05-10T01:56:18;0.30;;;0.20;;
17866;SDS011;9059;49.934;8.650;2023-05-10T01:57:24;0.65;;;0.30;;
17866;SDS011;9059;49.934;8.650;2023-05-10T01:58:29;2.72;;;0.30;;
17866;SDS011;9059;49.934;8.650;2023-05-10T01:59:34;0.98;;;0.15;;
17866;SDS011;9059;49.934;8.650;2023-05-10T02:00:39;0.20;;;0.20;;
17866;SDS011;9059;49.934;8.650;2023-05-10T02:01:43;0.20;;;0.20;;
17866;SDS011;9059;49.934;8.650;2023-05-10T02:02:47;1.17;;;0.30;;
17866;SDS011;9059;49.934;8.650;2023-05-10T02:03:52;2.63;;;0.45;;
17866;SDS011;9059;49.934;8.650;2023-05-10T02:04:54;4.22;;;0.40;;
17866;SDS011;9059;49.934;8.650;2023-05-10T02:05:57;1.00;;;0.50;;
17866;SDS011;9059;49.934;8.650;2023-05-10T02:07:00;2.00;;;0.50;;
17866;SDS011;9059;49.934;8.650;2023-05-10T02:08:05;0.43;;;0.30;;
17866;SDS011;9059;49.934;8.650;2023-05-10T02:09:07;0.43;;;0.40;;
17866;SDS011;9059;49.934;8.650;2023-05-10T02:10:11;0.82;;;0.40;;
17866;SDS011;9059;49.934;8.650;2023-05-10T02:11:15;2.28;;;0.40;;
17866;SDS011;9059;49.934;8.650;2023-05-10T02:12:19;0.85;;;0.40;;
17866;SDS011;9059;49.934;8.650;2023-05-10T02:13:22;0.30;;;0.25;;
17866;SDS011;9059;49.934;8.650;2023-05-10T02:14:26;0.22;;;0.22;;
17866;SDS011;9059;49.934;8.650;2023-05-10T02:15:28;0.30;;;0.30;;
17866;SDS011;9059;49.934;8.650;2023-05-10T02:16:32;0.80;;;0.50;;
17866;SDS011;9059;49.934;8.650;2023-05-10T02:17:34;0.43;;;0.30;;
17866;SDS011;9059;49.934;8.650;2023-05-10T02:18:37;0.85;;;0.60;;
17866;SDS011;9059;49.934;8.650;2023-05-10T02:19:42;0.95;;;0.40;;
17866;SDS011;9059;49.934;8.650;2023-05-10T02:20:46;3.30;;;0.98;;
17866;SDS011;9059;49.934;8.650;2023-05-10T02:21:48;0.85;;;0.50;;
17866;SDS011;9059;49.934;8.650;2023-05-10T02:22:53;1.10;;;0.50;;
17866;SDS011;9059;49.934;8.650;2023-05-10T02:23:56;3.42;;;0.40;;
17866;SDS011;9059;49.934;8.650;2023-05-10T02:24:59;1.02;;;0.50;;
17866;SDS011;9059;49.934;8.650;2023-05-10T02:26:01;1.05;;;0.60;;
17866;SDS011;9059;49.934;8.650;2023-05-10T02:27:05;1.50;;;0.50;;
17866;SDS011;9059;49.934;8.650;2023-05-10T02:28:07;1.65;;;0.32;;
17866;SDS011;9059;49.934;8.650;2023-05-10T02:29:10;2.25;;;0.30;;
17866;SDS011;9059;49.934;8.650;2023-05-10T02:30:13;1.73;;;0.50;;
17866;SDS011;9059;49.934;8.650;2023-05-10T02:31:17;0.47;;;0.30;;
17866;SDS011;9059;49.934;8.650;2023-05-10T02:32:19;3.38;;;0.65;;
17866;SDS011;9059;49.934;8.650;2023-05-10T02:33:23;0.93;;;0.60;;
17866;SDS011;9059;49.934;8.650;2023-05-10T02:34:26;0.55;;;0.50;;
17866;SDS011;9059;49.934;8.650;2023-05-10T02:35:31;2.47;;;0.60;;
17866;SDS011;9059;49.934;8.650;2023-05-10T02:36:34;4.47;;;0.50;;
17866;SDS011;9059;49.934;8.650;2023-05-10T02:37:37;0.52;;;0.52;;
17866;SDS011;9059;49.934;8.650;2023-05-10T02:38:40;0.73;;;0.47;;
17866;SDS011;9059;49.934;8.650;2023-05-10T02:39:42;3.70;;;0.50;;
17866;SDS011;9059;49.934;8.650;2023-05-10T02:40:46;1.95;;;0.52;;
17866;SDS011;9059;49.934;8.650;2023-05-10T02:41:50;0.80;;;0.50;;
17866;SDS011;9059;49.934;8.650;2023-05-10T02:42:54;1.20;;;0.50;;
17866;SDS011;9059;49.934;8.650;2023-05-10T02:43:59;1.17;;;0.50;;
17866;SDS011;9059;49.934;8.650;2023-05-10T02:45:02;1.27;;;0.60;;
17866;SDS011;9059;49.934;8.650;2023-05-10T02:46:07;3.13;;;0.60;;
17866;SDS011;9059;49.934;8.650;2023-05-10T02:47:09;2.08;;;0.40;;
17866;SDS011;9059;49.934;8.650;2023-05-10T02:48:12;1.10;;;0.60;;
17866;SDS011;9059;49.934;8.650;2023-05-10T02:49:14;0.52;;;0.40;;
17866;SDS011;9059;49.934;8.650;2023-05-10T02:50:17;0.47;;;0.40;;
17866;SDS011;9059;49.934;8.650;2023-05-10T02:51:20;1.00;;;0.60;;
17866;SDS011;9059;49.934;8.650;2023-05-10T02:52:27;0.50;;;0.50;;
17866;SDS011;9059;49.934;8.650;2023-05-10T02:53:31;1.02;;;0.50;;
17866;SDS011;9059;49.934;8.650;2023-05-10T02:54:36;0.50;;;0.47;;
17866;SDS011;9059;49.934;8.650;2023-05-10T02:55:42;1.92;;;0.60;;
17866;SDS011;9059;49.934;8.650;2023-05-10T02:56:50;0.95;;;0.70;;
17866;SDS011;9059;49.934;8.650;2023-05-10T02:57:56;1.27;;;0.60;;
17866;SDS011;9059;49.934;8.650;2023-05-10T02:59:00;1.20;;;0.60;;
17866;SDS011;9059;49.934;8.650;2023-05-10T03:00:03;0.65;;;0.60;;
17866;SDS011;9059;49.934;8.650;2023-05-10T03:01:06;0.68;;;0.40;;
17866;SDS011;9059;49.934;8.650;2023-05-10T03:02:09;2.22;;;0.38;;
17866;SDS011;9059;49.934;8.650;2023-05-10T03:03:11;2.45;;;0.60;;
17866;SDS011;9059;49.934;8.650;2023-05-10T03:04:14;0.70;;;0.57;;
17866;SDS011;9059;49.934;8.650;2023-05-10T03:05:16;2.20;;;0.60;;
17866;SDS011;9059;49.934;8.650;2023-05-10T03:06:20;0.80;;;0.50;;
17866;SDS011;9059;49.934;8.650;2023-05-10T03:07:22;2.65;;;0.68;;
17866;SDS011;9059;49.934;8.650;2023-05-10T03:08:25;0.80;;;0.60;;
17866;SDS011;9059;49.934;8.650;2023-05-10T03:09:26;1.90;;;0.57;;
17866;SDS011;9059;49.934;8.650;2023-05-10T03:10:29;0.98;;;0.52;;
17866;SDS011;9059;49.934;8.650;2023-05-10T03:11:36;3.03;;;0.60;;
17866;SDS011;9059;49.934;8.650;2023-05-10T03:12:47;0.70;;;0.50;;
17866;SDS011;9059;49.934;8.650;2023-05-10T03:13:56;0.70;;;0.55;;
17866;SDS011;9059;49.934;8.650;2023-05-10T03:15:10;2.05;;;0.50;;
17866;SDS011;9059;49.934;8.650;2023-05-10T03:16:15;0.93;;;0.63;;
17866;SDS011;9059;49.934;8.650;2023-05-10T03:17:19;3.70;;;0.60;;
17866;SDS011;9059;49.934;8.650;2023-05-10T03:18:28;2.80;;;0.70;;
17866;SDS011;9059;49.934;8.650;2023-05-10T03:19:36;1.23;;;0.70;;
17866;SDS011;9059;49.934;8.650;2023-05-10T03:20:42;1.88;;;0.77;;
17866;SDS011;9059;49.934;8.650;2023-05-10T03:21:53;0.95;;;0.60;;
17866;SDS011;9059;49.934;8.650;2023-05-10T03:22:59;3.65;;;0.77;;
17866;SDS011;9059;49.934;8.650;2023-05-10T03:24:05;1.98;;;0.70;;
17866;SDS011;9059;49.934;8.650;2023-05-10T03:25:08;2.55;;;0.80;;
17866;SDS011;9059;49.934;8.650;2023-05-10T03:26:14;2.20;;;0.85;;
17866;SDS011;9059;49.934;8.650;2023-05-10T03:27:19;1.05;;;0.70;;
17866;SDS011;9059;49.934;8.650;2023-05-10T03:28:22;6.97;;;0.90;;
17866;SDS011;9059;49.934;8.650;2023-05-10T03:29:26;1.60;;;0.88;;
17866;SDS011;9059;49.934;8.650;2023-05-10T03:30:30;3.13;;;0.77;;
17866;SDS011;9059;49.934;8.650;2023-05-10T03:31:32;1.65;;;0.73;;
17866;SDS011;9059;49.934;8.650;2023-05-10T03:32:35;4.28;;;0.90;;
17866;SDS011;9059;49.934;8.650;2023-05-10T03:33:45;1.92;;;0.80;;
17866;SDS011;9059;49.934;8.650;2023-05-10T03:34:48;2.63;;;0.73;;
17866;SDS011;9059;49.934;8.650;2023-05-10T03:35:50;2.92;;;1.00;;
17866;SDS011;9059;49.934;8.650;2023-05-10T03:36:54;1.98;;;0.70;;
17866;SDS011;9059;49.934;8.650;2023-05-10T03:37:57;3.53;;;0.93;;
17866;SDS011;9059;49.934;8.650;2023-05-10T03:38:58;1.67;;;0.88;;
17866;SDS011;9059;49.934;8.650;2023-05-10T03:40:01;3.63;;;1.00;;
17866;SDS011;9059;49.934;8.650;2023-05-10T03:41:03;1.00;;;0.75;;
17866;SDS011;9059;49.934;8.650;2023-05-10T03:42:06;2.30;;;0.90;;
17866;SDS011;9059;49.934;8.650;2023-05-10T03:43:08;2.45;;;0.93;;
17866;SDS011;9059;49.934;8.650;2023-05-10T03:44:11;0.95;;;0.85;;
17866;SDS011;9059;49.934;8.650;2023-05-10T03:45:12;3.67;;;0.90;;
17866;SDS011;9059;49.934;8.650;2023-05-10T03:46:15;1.05;;;0.80;;
17866;SDS011;9059;49.934;8.650;2023-05-10T03:47:17;2.45;;;1.00;;
17866;SDS011;9059;49.934;8.650;2023-05-10T03:48:20;1.30;;;0.80;;
17866;SDS011;9059;49.934;8.650;2023-05-10T03:49:21;1.08;;;0.90;;
17866;SDS011;9059;49.934;8.650;2023-05-10T03:50:24;2.20;;;1.00;;
17866;SDS011;9059;49.934;8.650;2023-05-10T03:51:27;1.52;;;1.08;;
17866;SDS011;9059;49.934;8.650;2023-05-10T03:52:31;2.17;;;0.90;;
17866;SDS011;9059;49.934;8.650;2023-05-10T03:53:33;3.38;;;1.23;;
17866;SDS011;9059;49.934;8.650;2023-05-10T03:54:36;1.90;;;0.98;;
17866;SDS011;9059;49.934;8.650;2023-05-10T03:55:38;1.85;;;0.90;;
17866;SDS011;9059;49.934;8.650;2023-05-10T03:56:41;1.60;;;0.90;;
17866;SDS011;9059;49.934;8.650;2023-05-10T03:57:43;2.25;;;0.90;;
17866;SDS011;9059;49.934;8.650;2023-05-10T03:58:46;7.55;;;1.05;;
17866;SDS011;9059;49.934;8.650;2023-05-10T03:59:47;1.40;;;0.93;;
17866;SDS011;9059;49.934;8.650;2023-05-10T04:00:50;1.20;;;0.85;;
17866;SDS011;9059;49.934;8.650;2023-05-10T04:01:52;2.28;;;1.20;;
17866;SDS011;9059;49.934;8.650;2023-05-10T04:02:55;1.55;;;0.85;;
17866;SDS011;9059;49.934;8.650;2023-05-10T04:03:57;2.35;;;0.85;;
17866;SDS011;9059;49.934;8.650;2023-05-10T04:04:59;2.15;;;1.10;;
17866;SDS011;9059;49.934;8.650;2023-05-10T04:06:03;1.77;;;1.00;;
17866;SDS011;9059;49.934;8.650;2023-05-10T04:07:06;5.40;;;1.27;;
17866;SDS011;9059;49.934;8.650;2023-05-10T04:08:09;2.33;;;1.20;;
17866;SDS011;9059;49.934;8.650;2023-05-10T04:09:12;2.08;;;1.00;;
17866;SDS011;9059;49.934;8.650;2023-05-10T04:10:14;2.03;;;1.00;;
17866;SDS011;9059;49.934;8.650;2023-05-10T04:11:19;2.67;;;1.30;;
17866;SDS011;9059;49.934;8.650;2023-05-10T04:12:23;1.70;;;1.27;;
17866;SDS011;9059;49.934;8.650;2023-05-10T04:13:25;1.42;;;1.00;;
17866;SDS011;9059;49.934;8.650;2023-05-10T04:14:27;2.65;;;1.40;;
17866;SDS011;9059;49.934;8.650;2023-05-10T04:15:30;1.25;;;0.93;;
17866;SDS011;9059;49.934;8.650;2023-05-10T04:16:32;2.70;;;1.52;;
17866;SDS011;9059;49.934;8.650;2023-05-10T04:17:35;1.85;;;1.33;;
17866;SDS011;9059;49.934;8.650;2023-05-10T04:18:39;2.50;;;1.40;;
17866;SDS011;9059;49.934;8.650;2023-05-10T04:19:42;3.47;;;1.17;;
17866;SDS011;9059;49.934;8.650;2023-05-10T04:20:43;3.90;;;1.10;;
17866;SDS011;9059;49.934;8.650;2023-05-10T04:21:46;2.00;;;1.17;;
17866;SDS011;9059;49.934;8.650;2023-05-10T04:22:48;2.58;;;1.20;;
17866;SDS011;9059;49.934;8.650;2023-05-10T04:23:52;2.13;;;1.20;;
17866;SDS011;9059;49.934;8.650;2023-05-10T04:24:54;1.75;;;1.00;;
17866;SDS011;9059;49.934;8.650;2023-05-10T04:26:00;2.80;;;1.40;;
17866;SDS011;9059;49.934;8.650;2023-05-10T04:27:02;1.83;;;1.20;;
17866;SDS011;9059;49.934;8.650;2023-05-10T04:28:05;2.80;;;1.40;;
17866;SDS011;9059;49.934;8.650;2023-05-10T04:29:06;3.83;;;1.30;;
17866;SDS011;9059;49.934;8.650;2023-05-10T04:30:09;4.95;;;1.33;;
17866;SDS011;9059;49.934;8.650;2023-05-10T04:31:12;5.32;;;1.33;;
17866;SDS011;9059;49.934;8.650;2023-05-10T04:32:15;1.42;;;1.15;;
17866;SDS011;9059;49.934;8.650;2023-05-10T04:33:18;5.97;;;1.05;;
17866;SDS011;9059;49.934;8.650;2023-05-10T04:34:21;1.25;;;1.10;;
17866;SDS011;9059;49.934;8.650;2023-05-10T04:35:22;3.45;;;1.00;;
17866;SDS011;9059;49.934;8.650;2023-05-10T04:36:25;4.32;;;1.20;;
17866;SDS011;9059;49.934;8.650;2023-05-10T04:37:27;3.45;;;1.08;;
17866;SDS011;9059;49.934;8.650;2023-05-10T04:38:29;5.40;;;0.90;;
17866;SDS011;9059;49.934;8.650;2023-05-10T04:39:33;5.13;;;1.17;;
17866;SDS011;9059;49.934;8.650;2023-05-10T04:40:36;10.75;;;1.33;;
17866;SDS011;9059;49.934;8.650;2023-05-10T04:41:38;2.83;;;1.13;;
17866;SDS011;9059;49.934;8.650;2023-05-10T04:42:40;1.42;;;1.00;;
17866;SDS011;9059;49.934;8.650;2023-05-10T04:43:42;1.85;;;1.10;;
17866;SDS011;9059;49.934;8.650;2023-05-10T04:44:45;1.60;;;1.02;;
17866;SDS011;9059;49.934;8.650;2023-05-10T04:45:47;1.30;;;1.15;;
17866;SDS011;9059;49.934;8.650;2023-05-10T04:46:49;1.98;;;1.10;;
17866;SDS011;9059;49.934;8.650;2023-05-10T04:47:51;2.88;;;1.10;;
17866;SDS011;9059;49.934;8.650;2023-05-10T04:48:54;1.75;;;1.10;;
17866;SDS011;9059;49.934;8.650;2023-05-10T04:49:55;4.25;;;1.15;;
17866;SDS011;9059;49.934;8.650;2023-05-10T04:50:58;2.20;;;1.08;;
17866;SDS011;9059;49.934;8.650;2023-05-10T04:52:00;2.70;;;1.33;;
17866;SDS011;9059;49.934;8.650;2023-05-10T04:53:03;2.55;;;1.08;;
17866;SDS011;9059;49.934;8.650;2023-05-10T04:54:04;1.70;;;1.10;;
17866;SDS011;9059;49.934;8.650;2023-05-10T04:55:09;2.10;;;1.10;;
17866;SDS011;9059;49.934;8.650;2023-05-10T04:56:11;2.35;;;1.20;;
17866;SDS011;9059;49.934;8.650;2023-05-10T04:57:13;7.18;;;1.10;;
17866;SDS011;9059;49.934;8.650;2023-05-10T04:58:15;2.58;;;1.30;;
17866;SDS011;9059;49.934;8.650;2023-05-10T04:59:18;1.42;;;0.95;;
17866;SDS011;9059;49.934;8.650;2023-05-10T05:00:20;6.60;;;1.00;;
17866;SDS011;9059;49.934;8.650;2023-05-10T05:01:23;4.68;;;1.30;;
17866;SDS011;9059;49.934;8.650;2023-05-10T05:02:24;4.13;;;1.13;;
17866;SDS011;9059;49.934;8.650;2023-05-10T05:03:27;2.92;;;1.15;;
17866;SDS011;9059;49.934;8.650;2023-05-10T05:04:29;2.15;;;1.20;;
17866;SDS011;9059;49.934;8.650;2023-05-10T05:05:32;5.20;;;1.10;;
17866;SDS011;9059;49.934;8.650;2023-05-10T05:06:34;1.98;;;1.30;;
17866;SDS011;9059;49.934;8.650;2023-05-10T05:07:37;4.50;;;1.42;;
17866;SDS011;9059;49.934;8.650;2023-05-10T05:08:39;3.65;;;1.33;;
17866;SDS011;9059;49.934;8.650;2023-05-10T05:09:42;2.90;;;1.20;;
17866;SDS011;9059;49.934;8.650;2023-05-10T05:10:45;5.03;;;1.38;;
17866;SDS011;9059;49.934;8.650;2023-05-10T05:11:48;2.38;;;1.25;;
17866;SDS011;9059;49.934;8.650;2023-05-10T05:12:50;1.95;;;1.08;;
17866;SDS011;9059;49.934;8.650;2023-05-10T05:13:52;2.33;;;1.30;;
17866;SDS011;9059;49.934;8.650;2023-05-10T05:14:54;1.85;;;1.30;;
17866;SDS011;9059;49.934;8.650;2023-05-10T05:15:57;3.47;;;1.33;;
17866;SDS011;9059;49.934;8.650;2023-05-10T05:17:01;3.20;;;1.58;;
17866;SDS011;9059;49.934;8.650;2023-05-10T05:18:05;2.78;;;1.38;;
17866;SDS011;9059;49.934;8.650;2023-05-10T05:19:06;3.03;;;1.20;;
17866;SDS011;9059;49.934;8.650;2023-05-10T05:20:10;2.17;;;1.30;;
17866;SDS011;9059;49.934;8.650;2023-05-10T05:21:15;2.00;;;1.30;;
17866;SDS011;9059;49.934;8.650;2023-05-10T05:22:18;1.65;;;1.10;;
17866;SDS011;9059;49.934;8.650;2023-05-10T05:23:20;4.22;;;1.30;;
17866;SDS011;9059;49.934;8.650;2023-05-10T05:24:26;3.75;;;1.15;;
17866;SDS011;9059;49.934;8.650;2023-05-10T05:25:27;1.90;;;1.20;;
17866;SDS011;9059;49.934;8.650;2023-05-10T05:26:31;1.80;;;1.20;;
17866;SDS011;9059;49.934;8.650;2023-05-10T05:27:33;2.97;;;1.40;;
17866;SDS011;9059;49.934;8.650;2023-05-10T05:28:36;2.30;;;1.10;;
17866;SDS011;9059;49.934;8.650;2023-05-10T05:29:38;4.30;;;1.13;;
17866;SDS011;9059;49.934;8.650;2023-05-10T05:30:41;2.13;;;1.27;;
17866;SDS011;9059;49.934;8.650;2023-05-10T05:31:43;3.25;;;1.23;;
17866;SDS011;9059;49.934;8.650;2023-05-10T05:32:46;2.92;;;1.13;;
17866;SDS011;9059;49.934;8.650;2023-05-10T05:33:48;2.67;;;1.40;;
17866;SDS011;9059;49.934;8.650;2023-05-10T05:34:51;3.00;;;1.27;;
17866;SDS011;9059;49.934;8.650;2023-05-10T05:35:52;1.70;;;1.10;;
17866;SDS011;9059;49.934;8.650;2023-05-10T05:36:55;2.47;;;1.58;;
17866;SDS011;9059;49.934;8.650;2023-05-10T05:37:57;4.72;;;1.40;;
17866;SDS011;9059;49.934;8.650;2023-05-10T05:39:00;1.67;;;1.05;;
17866;SDS011;9059;49.934;8.650;2023-05-10T05:40:01;4.47;;;1.48;;
17866;SDS011;9059;49.934;8.650;2023-05-10T05:41:04;2.92;;;1.20;;
17866;SDS011;9059;49.934;8.650;2023-05-10T05:42:07;2.90;;;1.10;;
17866;SDS011;9059;49.934;8.650;2023-05-10T05:43:10;1.42;;;1.00;;
17866;SDS011;9059;49.934;8.650;2023-05-10T05:44:12;5.20;;;1.20;;
17866;SDS011;9059;49.934;8.650;2023-05-10T05:45:15;7.28;;;1.15;;
17866;SDS011;9059;49.934;8.650;2023-05-10T05:46:17;6.50;;;1.38;;
17866;SDS011;9059;49.934;8.650;2023-05-10T05:47:20;2.63;;;1.20;;
17866;SDS011;9059;49.934;8.650;2023-05-10T05:48:22;3.08;;;1.30;;
17866;SDS011;9059;49.934;8.650;2023-05-10T05:49:25;4.65;;;1.35;;
17866;SDS011;9059;49.934;8.650;2023-05-10T05:50:26;2.95;;;1.20;;
17866;SDS011;9059;49.934;8.650;2023-05-10T05:51:29;2.88;;;0.90;;
17866;SDS011;9059;49.934;8.650;2023-05-10T05:52:32;1.25;;;0.93;;
17866;SDS011;9059;49.934;8.650;2023-05-10T05:53:35;3.97;;;1.33;;
17866;SDS011;9059;49.934;8.650;2023-05-10T05:54:37;1.67;;;1.20;;
17866;SDS011;9059;49.934;8.650;2023-05-10T05:55:39;6.55;;;1.08;;
17866;SDS011;9059;49.934;8.650;2023-05-10T05:56:42;2.40;;;1.10;;
17866;SDS011;9059;49.934;8.650;2023-05-10T05:57:46;3.78;;;1.20;;
17866;SDS011;9059;49.934;8.650;2023-05-10T05:58:49;3.95;;;1.60;;
17866;SDS011;9059;49.934;8.650;2023-05-10T05:59:52;5.18;;;1.33;;
17866;SDS011;9059;49.934;8.650;2023-05-10T06:00:54;3.33;;;1.10;;
17866;SDS011;9059;49.934;8.650;2023-05-10T06:01:57;1.58;;;1.05;;
17866;SDS011;9059;49.934;8.650;2023-05-10T06:03:02;2.17;;;1.17;;
17866;SDS011;9059;49.934;8.650;2023-05-10T06:04:07;3.30;;;1.02;;
17866;SDS011;9059;49.934;8.650;2023-05-10T06:05:09;4.45;;;1.17;;
17866;SDS011;9059;49.934;8.650;2023-05-10T06:06:12;4.90;;;1.30;;
17866;SDS011;9059;49.934;8.650;2023-05-10T06:07:13;4.28;;;1.35;;
17866;SDS011;9059;49.934;8.650;2023-05-10T06:08:16;1.55;;;1.10;;
17866;SDS011;9059;49.934;8.650;2023-05-10T06:09:18;3.00;;;1.25;;
17866;SDS011;9059;49.934;8.650;2023-05-10T06:10:22;6.72;;;1.75;;
17866;SDS011;9059;49.934;8.650;2023-05-10T06:11:24;5.93;;;1.25;;
17866;SDS011;9059;49.934;8.650;2023-05-10T06:12:27;5.40;;;1.42;;
17866;SDS011;9059;49.934;8.650;2023-05-10T06:13:30;8.98;;;1.70;;
17866;SDS011;9059;49.934;8.650;2023-05-10T06:14:36;4.20;;;1.20;;
17866;SDS011;9059;49.934;8.650;2023-05-10T06:15:38;2.33;;;1.02;;
17866;SDS011;9059;49.934;8.650;2023-05-10T06:16:40;4.10;;;1.35;;
17866;SDS011;9059;49.934;8.650;2023-05-10T06:17:42;4.95;;;1.60;;
17866;SDS011;9059;49.934;8.650;2023-05-10T06:18:45;6.40;;;1.45;;
17866;SDS011;9059;49.934;8.650;2023-05-10T06:19:48;2.83;;;1.30;;
17866;SDS011;9059;49.934;8.650;2023-05-10T06:20:49;3.53;;;1.27;;
17866;SDS011;9059;49.934;8.650;2023-05-10T06:21:52;1.92;;;1.30;;
17866;SDS011;9059;49.934;8.650;2023-05-10T06:22:54;5.32;;;1.45;;
17866;SDS011;9059;49.934;8.650;2023-05-10T06:23:57;2.55;;;1.30;;
17866;SDS011;9059;49.934;8.650;2023-05-10T06:25:00;3.10;;;1.20;;
17866;SDS011;9059;49.934;8.650;2023-05-10T06:26:03;3.85;;;1.23;;
17866;SDS011;9059;49.934;8.650;2023-05-10T06:27:06;1.70;;;1.10;;
17866;SDS011;9059;49.934;8.650;2023-05-10T06:28:08;4.22;;;1.45;;
17866;SDS011;9059;49.934;8.650;2023-05-10T06:29:12;5.65;;;1.27;;
17866;SDS011;9059;49.934;8.650;2023-05-10T06:30:16;2.53;;;1.10;;
17866;SDS011;9059;49.934;8.650;2023-05-10T06:31:18;3.80;;;1.13;;